No1 Tokuyama — JK5318 — position and weather

sailwx.info

Track history (hours):
 
Tides and Currents Weather Stations Pressure Air Temp Water Temp Dewpoint Dewpoint Depression Visibility Wind Speed Wind Dir Waves Ship Positions

No1 Tokuyama

Last reported at 2016-Apr-26 04:33 UTC. Time now 2016-Apr-29 10:03 UTC.
Position N 34°37' E 134°58'.

Length 110 m; draft 5.5 m.

Type: Cargo ship. MMSI: 431400487.

Date/timePositionNaut miles runAvg speedWind from/ knotsBaromVisibWave heightAir tempDewpointWater temp
2016-Apr-26 04:33N 34°37' E 134°58'1313.1
2016-Apr-26 03:33N 34°36' E 135°14'1110.9
2016-Apr-26 02:33N 34°39' E 135°27'0 0.0
2016-Apr-26 01:28N 34°39' E 135°27'0 0.0
2016-Apr-26 00:28N 34°39' E 135°27'0 0.0
2016-Apr-25 23:28N 34°39' E 135°27'0 0.0
2016-Apr-25 22:28N 34°39' E 135°27'0 0.0
2016-Apr-25 21:28N 34°39' E 135°27'0 0.0
2016-Apr-25 20:10N 34°39' E 135°27'0 0.0
2016-Apr-25 19:16N 34°39' E 135°27'0 0.0
2016-Apr-25 18:28N 34°39' E 135°27'0 0.0
2016-Apr-25 17:22N 34°39' E 135°27'0 0.0
2016-Apr-25 16:28N 34°39' E 135°27'0 0.0
2016-Apr-25 15:28N 34°39' E 135°27'0 0.0
2016-Apr-25 14:28N 34°39' E 135°27'0 0.0
2016-Apr-25 13:28N 34°39' E 135°27'0 0.0
2016-Apr-25 12:28N 34°39' E 135°27'0 0.0
2016-Apr-25 11:28N 34°39' E 135°27'0 0.0
2016-Apr-25 10:22N 34°39' E 135°27'0 0.0
2016-Apr-25 09:28N 34°39' E 135°27'0 0.0
2016-Apr-25 08:28N 34°39' E 135°27'0 0.0
2016-Apr-25 07:33N 34°39' E 135°27'5 4.5
2016-Apr-25 06:33N 34°37' E 135°21'6 6.2
2016-Apr-25 05:33N 34°31' E 135°21'3 2.3
2016-Apr-25 04:19N 34°28' E 135°22'0 0.0
2016-Apr-25 03:31N 34°28' E 135°22'0 0.0
2016-Apr-25 02:33N 34°28' E 135°22'0 0.0
2016-Apr-25 01:33N 34°28' E 135°22'2 2.0
2016-Apr-25 00:33N 34°30' E 135°21'8 7.6
2016-Apr-24 23:33N 34°31' E 135°12'1211.6
2016-Apr-24 22:31N 34°37' E 134°59'  
2016-Apr-22 06:06N 34°31' E 138°34'5011.0
2016-Apr-22 01:31N 34°57' E 139°26'1313.0
2016-Apr-22 00:33N 35°05' E 139°38'1212.3
2016-Apr-21 23:33N 35°15' E 139°46'1111.3
2016-Apr-21 22:33N 35°26' E 139°46'7 6.9
2016-Apr-21 21:34N 35°29' E 139°54'0 0.0
2016-Apr-21 20:33N 35°29' E 139°54'0 0.0
2016-Apr-21 19:34N 35°29' E 139°54'0 0.0
2016-Apr-21 18:33N 35°29' E 139°54'0 0.0
2016-Apr-21 17:33N 35°29' E 139°54'0 0.0
2016-Apr-21 16:33N 35°29' E 139°54'0 0.0
2016-Apr-21 15:33N 35°29' E 139°54'0 0.0
2016-Apr-21 14:33N 35°29' E 139°54'0 0.0
2016-Apr-21 13:33N 35°29' E 139°54'0 0.1
2016-Apr-21 12:33N 35°29' E 139°54'0 0.1
2016-Apr-21 11:33N 35°29' E 139°54'0 0.0
2016-Apr-21 10:33N 35°29' E 139°54'0 0.0
2016-Apr-21 09:33N 35°29' E 139°54'3 2.9
2016-Apr-21 08:33N 35°30' E 139°51'6 5.7
2016-Apr-21 07:33N 35°30' E 139°44'0 0.0
2016-Apr-21 06:33N 35°30' E 139°44'0 0.0
2016-Apr-21 05:33N 35°30' E 139°44'0 0.0
2016-Apr-21 04:33N 35°30' E 139°44'0 0.0
2016-Apr-21 03:33N 35°30' E 139°44'0 0.0
2016-Apr-21 02:33N 35°30' E 139°44'0 0.0
2016-Apr-21 01:33N 35°30' E 139°44'0 0.0
2016-Apr-21 00:33N 35°30' E 139°44'2 1.8
2016-Apr-20 23:34N 35°29' E 139°42'7 7.3
2016-Apr-20 22:33N 35°24' E 139°48'3 2.5
2016-Apr-20 21:30N 35°22' E 139°51'0 0.0
2016-Apr-20 20:33N 35°22' E 139°51'0 0.0
2016-Apr-20 19:33N 35°22' E 139°51'0 0.0
2016-Apr-20 18:33N 35°22' E 139°51'0 0.0
2016-Apr-20 17:33N 35°22' E 139°51'0 0.0
2016-Apr-20 16:30N 35°22' E 139°51'0 0.0
2016-Apr-20 15:33N 35°22' E 139°51'0 0.0
2016-Apr-20 14:33N 35°22' E 139°51'0 0.0
2016-Apr-20 13:33N 35°22' E 139°51'0 0.0
2016-Apr-20 12:33N 35°22' E 139°51'0 0.0
2016-Apr-20 11:33N 35°22' E 139°51'0 0.0
2016-Apr-20 10:33N 35°22' E 139°51'0 0.0
2016-Apr-20 09:33N 35°22' E 139°51'0 0.0
2016-Apr-20 08:30N 35°22' E 139°51'0 0.0
2016-Apr-20 07:33N 35°22' E 139°51'3 2.8
2016-Apr-20 06:32N 35°22' E 139°47'0 0.0
2016-Apr-20 05:32N 35°22' E 139°47'0 0.0
2016-Apr-20 04:32N 35°22' E 139°47'0 0.0
2016-Apr-20 03:32N 35°22' E 139°47'0 0.1
2016-Apr-20 02:32N 35°22' E 139°47'0 0.0
2016-Apr-20 01:32N 35°22' E 139°47'0 0.0
2016-Apr-20 00:32N 35°22' E 139°47'0 0.0
2016-Apr-19 23:32N 35°22' E 139°47'0 0.0
2016-Apr-19 22:32N 35°22' E 139°47'0 0.0
2016-Apr-19 21:32N 35°22' E 139°47'0 0.0
2016-Apr-19 20:32N 35°22' E 139°47'0 0.0
2016-Apr-19 19:32N 35°22' E 139°47'0 0.0
2016-Apr-19 18:32N 35°22' E 139°47'0 0.0
2016-Apr-19 17:32N 35°22' E 139°47'0 0.0
2016-Apr-19 16:32N 35°22' E 139°47'0 0.0
2016-Apr-19 15:32N 35°22' E 139°47'0 0.0
2016-Apr-19 14:32N 35°22' E 139°47'0 0.0
2016-Apr-19 13:32N 35°22' E 139°47'0 0.0
2016-Apr-19 12:32N 35°22' E 139°47'0 0.1
2016-Apr-19 11:32N 35°22' E 139°47'0 0.1
2016-Apr-19 10:30N 35°22' E 139°47'6 6.0
2016-Apr-19 09:33N 35°26' E 139°42'1 0.6
2016-Apr-19 08:33N 35°26' E 139°41'0 0.0
2016-Apr-19 07:30N 35°26' E 139°41'0 0.0
2016-Apr-19 06:33N 35°26' E 139°41'0 0.0
2016-Apr-19 05:33N 35°26' E 139°41'0 0.0
2016-Apr-19 04:34N 35°26' E 139°41'8 8.5
2016-Apr-19 03:33N 35°29' E 139°51'6 6.1
2016-Apr-19 02:33N 35°27' E 139°58'0 0.0
2016-Apr-19 01:29N 35°27' E 139°58'0 0.0
2016-Apr-19 00:29N 35°27' E 139°58'0 0.0
2016-Apr-18 23:29N 35°27' E 139°58'0 0.0
2016-Apr-18 22:33N 35°27' E 139°58'3 2.5
2016-Apr-18 21:31N 35°29' E 139°55'0 0.0
2016-Apr-18 20:28N 35°29' E 139°55'0 0.0
2016-Apr-18 19:31N 35°29' E 139°55'0 0.0
2016-Apr-18 18:31N 35°29' E 139°55'0 0.0
2016-Apr-18 17:31N 35°29' E 139°55'0 0.0
2016-Apr-18 16:31N 35°29' E 139°55'0 0.0
2016-Apr-18 15:31N 35°29' E 139°55'2 2.2
2016-Apr-18 14:33N 35°28' E 139°53'1211.8
2016-Apr-18 13:33N 35°19' E 139°44'1211.7
2016-Apr-18 12:33N 35°07' E 139°45'2812.9
2016-Apr-18 10:24N 34°49' E 139°20'4112.5
2016-Apr-18 07:09N 34°31' E 138°36'18110.2
2016-Apr-17 13:26N 34°00' E 134°59'1112.4
2016-Apr-17 12:33N 34°11' E 134°59'1211.9
2016-Apr-17 11:33N 34°23' E 135°03'5 5.0
2016-Apr-17 10:32N 34°25' E 135°08'0 0.1
2016-Apr-17 09:32N 34°25' E 135°08'0 0.1
2016-Apr-17 08:32N 34°25' E 135°08'0 0.0
2016-Apr-17 07:08N 34°25' E 135°08'0 0.0
2016-Apr-17 06:32N 34°25' E 135°08'0 0.1
2016-Apr-17 05:32N 34°25' E 135°08'0 0.0
2016-Apr-17 04:29N 34°25' E 135°08'0 0.0
2016-Apr-17 03:32N 34°25' E 135°08'0 0.0
2016-Apr-17 02:20N 34°25' E 135°08'5 6.3
2016-Apr-17 01:33N 34°29' E 135°06'1010.0
2016-Apr-17 00:33N 34°36' E 134°57'  
Track history (hours):
 
Tides and Currents Weather Stations Pressure Air Temp Water Temp Dewpoint Dewpoint Depression Visibility Wind Speed Wind Dir Waves Ship Positions

No1 Tokuyama

Last reported at 2016-Apr-26 04:33 UTC. Time now 2016-Apr-29 10:03 UTC.
Position N 34°37' E 134°58'.

Length 110 m; draft 5.5 m.

Type: Cargo ship. MMSI: 431400487.

Date/timePositionNaut miles runAvg speedWind from/ knotsBaromVisibWave heightAir tempDewpointWater temp
2016-Apr-26 04:33N 34°37' E 134°58'1313.1
2016-Apr-26 03:33N 34°36' E 135°14'1110.9
2016-Apr-26 02:33N 34°39' E 135°27'0 0.0
2016-Apr-26 01:28N 34°39' E 135°27'0 0.0
2016-Apr-26 00:28N 34°39' E 135°27'0 0.0
2016-Apr-25 23:28N 34°39' E 135°27'0 0.0
2016-Apr-25 22:28N 34°39' E 135°27'0 0.0
2016-Apr-25 21:28N 34°39' E 135°27'0 0.0
2016-Apr-25 20:10N 34°39' E 135°27'0 0.0
2016-Apr-25 19:16N 34°39' E 135°27'0 0.0
2016-Apr-25 18:28N 34°39' E 135°27'0 0.0
2016-Apr-25 17:22N 34°39' E 135°27'0 0.0
2016-Apr-25 16:28N 34°39' E 135°27'0 0.0
2016-Apr-25 15:28N 34°39' E 135°27'0 0.0
2016-Apr-25 14:28N 34°39' E 135°27'0 0.0
2016-Apr-25 13:28N 34°39' E 135°27'0 0.0
2016-Apr-25 12:28N 34°39' E 135°27'0 0.0
2016-Apr-25 11:28N 34°39' E 135°27'0 0.0
2016-Apr-25 10:22N 34°39' E 135°27'0 0.0
2016-Apr-25 09:28N 34°39' E 135°27'0 0.0
2016-Apr-25 08:28N 34°39' E 135°27'0 0.0
2016-Apr-25 07:33N 34°39' E 135°27'5 4.5
2016-Apr-25 06:33N 34°37' E 135°21'6 6.2
2016-Apr-25 05:33N 34°31' E 135°21'3 2.3
2016-Apr-25 04:19N 34°28' E 135°22'0 0.0
2016-Apr-25 03:31N 34°28' E 135°22'0 0.0
2016-Apr-25 02:33N 34°28' E 135°22'0 0.0
2016-Apr-25 01:33N 34°28' E 135°22'2 2.0
2016-Apr-25 00:33N 34°30' E 135°21'8 7.6
2016-Apr-24 23:33N 34°31' E 135°12'1211.6
2016-Apr-24 22:31N 34°37' E 134°59'  
2016-Apr-22 06:06N 34°31' E 138°34'5011.0
2016-Apr-22 01:31N 34°57' E 139°26'1313.0
2016-Apr-22 00:33N 35°05' E 139°38'1212.3
2016-Apr-21 23:33N 35°15' E 139°46'1111.3
2016-Apr-21 22:33N 35°26' E 139°46'7 6.9
2016-Apr-21 21:34N 35°29' E 139°54'0 0.0
2016-Apr-21 20:33N 35°29' E 139°54'0 0.0
2016-Apr-21 19:34N 35°29' E 139°54'0 0.0
2016-Apr-21 18:33N 35°29' E 139°54'0 0.0
2016-Apr-21 17:33N 35°29' E 139°54'0 0.0
2016-Apr-21 16:33N 35°29' E 139°54'0 0.0
2016-Apr-21 15:33N 35°29' E 139°54'0 0.0
2016-Apr-21 14:33N 35°29' E 139°54'0 0.0
2016-Apr-21 13:33N 35°29' E 139°54'0 0.1
2016-Apr-21 12:33N 35°29' E 139°54'0 0.1
2016-Apr-21 11:33N 35°29' E 139°54'0 0.0
2016-Apr-21 10:33N 35°29' E 139°54'0 0.0
2016-Apr-21 09:33N 35°29' E 139°54'3 2.9
2016-Apr-21 08:33N 35°30' E 139°51'6 5.7
2016-Apr-21 07:33N 35°30' E 139°44'0 0.0
2016-Apr-21 06:33N 35°30' E 139°44'0 0.0
2016-Apr-21 05:33N 35°30' E 139°44'0 0.0
2016-Apr-21 04:33N 35°30' E 139°44'0 0.0
2016-Apr-21 03:33N 35°30' E 139°44'0 0.0
2016-Apr-21 02:33N 35°30' E 139°44'0 0.0
2016-Apr-21 01:33N 35°30' E 139°44'0 0.0
2016-Apr-21 00:33N 35°30' E 139°44'2 1.8
2016-Apr-20 23:34N 35°29' E 139°42'7 7.3
2016-Apr-20 22:33N 35°24' E 139°48'3 2.5
2016-Apr-20 21:30N 35°22' E 139°51'0 0.0
2016-Apr-20 20:33N 35°22' E 139°51'0 0.0
2016-Apr-20 19:33N 35°22' E 139°51'0 0.0
2016-Apr-20 18:33N 35°22' E 139°51'0 0.0
2016-Apr-20 17:33N 35°22' E 139°51'0 0.0
2016-Apr-20 16:30N 35°22' E 139°51'0 0.0
2016-Apr-20 15:33N 35°22' E 139°51'0 0.0
2016-Apr-20 14:33N 35°22' E 139°51'0 0.0
2016-Apr-20 13:33N 35°22' E 139°51'0 0.0
2016-Apr-20 12:33N 35°22' E 139°51'0 0.0
2016-Apr-20 11:33N 35°22' E 139°51'0 0.0
2016-Apr-20 10:33N 35°22' E 139°51'0 0.0
2016-Apr-20 09:33N 35°22' E 139°51'0 0.0
2016-Apr-20 08:30N 35°22' E 139°51'0 0.0
2016-Apr-20 07:33N 35°22' E 139°51'3 2.8
2016-Apr-20 06:32N 35°22' E 139°47'0 0.0
2016-Apr-20 05:32N 35°22' E 139°47'0 0.0
2016-Apr-20 04:32N 35°22' E 139°47'0 0.0
2016-Apr-20 03:32N 35°22' E 139°47'0 0.1
2016-Apr-20 02:32N 35°22' E 139°47'0 0.0
2016-Apr-20 01:32N 35°22' E 139°47'0 0.0
2016-Apr-20 00:32N 35°22' E 139°47'0 0.0
2016-Apr-19 23:32N 35°22' E 139°47'0 0.0
2016-Apr-19 22:32N 35°22' E 139°47'0 0.0
2016-Apr-19 21:32N 35°22' E 139°47'0 0.0
2016-Apr-19 20:32N 35°22' E 139°47'0 0.0
2016-Apr-19 19:32N 35°22' E 139°47'0 0.0
2016-Apr-19 18:32N 35°22' E 139°47'0 0.0
2016-Apr-19 17:32N 35°22' E 139°47'0 0.0
2016-Apr-19 16:32N 35°22' E 139°47'0 0.0
2016-Apr-19 15:32N 35°22' E 139°47'0 0.0
2016-Apr-19 14:32N 35°22' E 139°47'0 0.0
2016-Apr-19 13:32N 35°22' E 139°47'0 0.0
2016-Apr-19 12:32N 35°22' E 139°47'0 0.1
2016-Apr-19 11:32N 35°22' E 139°47'0 0.1
2016-Apr-19 10:30N 35°22' E 139°47'6 6.0
2016-Apr-19 09:33N 35°26' E 139°42'1 0.6
2016-Apr-19 08:33N 35°26' E 139°41'0 0.0
2016-Apr-19 07:30N 35°26' E 139°41'0 0.0
2016-Apr-19 06:33N 35°26' E 139°41'0 0.0
2016-Apr-19 05:33N 35°26' E 139°41'0 0.0
2016-Apr-19 04:34N 35°26' E 139°41'8 8.5
2016-Apr-19 03:33N 35°29' E 139°51'6 6.1
2016-Apr-19 02:33N 35°27' E 139°58'0 0.0
2016-Apr-19 01:29N 35°27' E 139°58'0 0.0
2016-Apr-19 00:29N 35°27' E 139°58'0 0.0
2016-Apr-18 23:29N 35°27' E 139°58'0 0.0
2016-Apr-18 22:33N 35°27' E 139°58'3 2.5
2016-Apr-18 21:31N 35°29' E 139°55'0 0.0
2016-Apr-18 20:28N 35°29' E 139°55'0 0.0
2016-Apr-18 19:31N 35°29' E 139°55'0 0.0
2016-Apr-18 18:31N 35°29' E 139°55'0 0.0
2016-Apr-18 17:31N 35°29' E 139°55'0 0.0
2016-Apr-18 16:31N 35°29' E 139°55'0 0.0
2016-Apr-18 15:31N 35°29' E 139°55'2 2.2
2016-Apr-18 14:33N 35°28' E 139°53'1211.8
2016-Apr-18 13:33N 35°19' E 139°44'1211.7
2016-Apr-18 12:33N 35°07' E 139°45'2812.9
2016-Apr-18 10:24N 34°49' E 139°20'4112.5
2016-Apr-18 07:09N 34°31' E 138°36'18110.2
2016-Apr-17 13:26N 34°00' E 134°59'1112.4
2016-Apr-17 12:33N 34°11' E 134°59'1211.9
2016-Apr-17 11:33N 34°23' E 135°03'5 5.0
2016-Apr-17 10:32N 34°25' E 135°08'0 0.1
2016-Apr-17 09:32N 34°25' E 135°08'0 0.1
2016-Apr-17 08:32N 34°25' E 135°08'0 0.0
2016-Apr-17 07:08N 34°25' E 135°08'0 0.0
2016-Apr-17 06:32N 34°25' E 135°08'0 0.1
2016-Apr-17 05:32N 34°25' E 135°08'0 0.0
2016-Apr-17 04:29N 34°25' E 135°08'0 0.0
2016-Apr-17 03:32N 34°25' E 135°08'0 0.0
2016-Apr-17 02:20N 34°25' E 135°08'5 6.3
2016-Apr-17 01:33N 34°29' E 135°06'1010.0
2016-Apr-17 00:33N 34°36' E 134°57'  

Dump ship's entire track history